sensor_id;sensor_type;location;lat;lon;timestamp;temperature;humidity
49717;DHT22;35609;53.166;7.610;2023-02-22T00:00:40;8.00;99.90
49717;DHT22;35609;53.166;7.610;2023-02-22T00:03:24;7.90;99.90
49717;DHT22;35609;53.166;7.610;2023-02-22T00:05:55;8.00;99.90
49717;DHT22;35609;53.166;7.610;2023-02-22T00:08:26;8.00;99.90
49717;DHT22;35609;53.166;7.610;2023-02-22T00:10:59;7.80;99.90
49717;DHT22;35609;53.166;7.610;2023-02-22T00:13:25;8.00;99.90
49717;DHT22;35609;53.166;7.610;2023-02-22T00:15:57;7.80;99.90
49717;DHT22;35609;53.166;7.610;2023-02-22T00:18:23;7.90;99.90
49717;DHT22;35609;53.166;7.610;2023-02-22T00:20:52;7.80;99.90
49717;DHT22;35609;53.166;7.610;2023-02-22T00:23:21;7.80;99.90
49717;DHT22;35609;53.166;7.610;2023-02-22T00:25:50;7.90;99.90
49717;DHT22;35609;53.166;7.610;2023-02-22T00:28:16;7.90;99.90
49717;DHT22;35609;53.166;7.610;2023-02-22T00:30:43;7.80;99.90
49717;DHT22;35609;53.166;7.610;2023-02-22T00:33:11;7.90;99.90
49717;DHT22;35609;53.166;7.610;2023-02-22T00:35:37;8.00;99.90
49717;DHT22;35609;53.166;7.610;2023-02-22T00:38:03;7.90;99.90
49717;DHT22;35609;53.166;7.610;2023-02-22T00:40:31;7.90;99.90
49717;DHT22;35609;53.166;7.610;2023-02-22T00:42:59;7.90;99.90
49717;DHT22;35609;53.166;7.610;2023-02-22T00:45:26;8.00;99.90
49717;DHT22;35609;53.166;7.610;2023-02-22T00:47:53;7.90;99.90
49717;DHT22;35609;53.166;7.610;2023-02-22T00:50:23;8.00;99.90
49717;DHT22;35609;53.166;7.610;2023-02-22T00:52:50;8.00;99.90
49717;DHT22;35609;53.166;7.610;2023-02-22T00:55:18;8.00;99.90
49717;DHT22;35609;53.166;7.610;2023-02-22T00:57:44;7.90;99.90
49717;DHT22;35609;53.166;7.610;2023-02-22T01:00:16;7.80;99.90
49717;DHT22;35609;53.166;7.610;2023-02-22T01:02:42;7.90;99.90
49717;DHT22;35609;53.166;7.610;2023-02-22T01:05:11;7.90;99.90
49717;DHT22;35609;53.166;7.610;2023-02-22T01:07:38;7.90;99.90
49717;DHT22;35609;53.166;7.610;2023-02-22T01:10:05;7.70;99.90
49717;DHT22;35609;53.166;7.610;2023-02-22T01:12:33;7.80;99.90
49717;DHT22;35609;53.166;7.610;2023-02-22T01:14:59;7.90;99.90
49717;DHT22;35609;53.166;7.610;2023-02-22T01:17:25;7.90;99.90
49717;DHT22;35609;53.166;7.610;2023-02-22T01:19:52;7.70;99.90
49717;DHT22;35609;53.166;7.610;2023-02-22T01:22:18;7.70;99.90
49717;DHT22;35609;53.166;7.610;2023-02-22T01:24:49;7.80;99.90
49717;DHT22;35609;53.166;7.610;2023-02-22T01:27:16;7.70;99.90
49717;DHT22;35609;53.166;7.610;2023-02-22T01:29:43;7.80;99.90
49717;DHT22;35609;53.166;7.610;2023-02-22T01:32:08;7.70;99.90
49717;DHT22;35609;53.166;7.610;2023-02-22T01:34:36;7.80;99.90
49717;DHT22;35609;53.166;7.610;2023-02-22T01:37:02;7.70;99.90
49717;DHT22;35609;53.166;7.610;2023-02-22T01:39:28;7.70;99.90
49717;DHT22;35609;53.166;7.610;2023-02-22T01:41:54;7.80;99.90
49717;DHT22;35609;53.166;7.610;2023-02-22T01:44:32;7.90;99.90
49717;DHT22;35609;53.166;7.610;2023-02-22T01:47:00;7.80;99.90
49717;DHT22;35609;53.166;7.610;2023-02-22T01:49:42;7.70;99.90
49717;DHT22;35609;53.166;7.610;2023-02-22T01:52:13;7.90;99.90
49717;DHT22;35609;53.166;7.610;2023-02-22T01:54:47;7.70;99.90
49717;DHT22;35609;53.166;7.610;2023-02-22T01:57:19;7.80;99.90
49717;DHT22;35609;53.166;7.610;2023-02-22T01:59:48;7.80;99.90
49717;DHT22;35609;53.166;7.610;2023-02-22T02:02:16;7.80;99.90
49717;DHT22;35609;53.166;7.610;2023-02-22T02:04:43;7.80;99.90
49717;DHT22;35609;53.166;7.610;2023-02-22T02:07:12;7.80;99.90
49717;DHT22;35609;53.166;7.610;2023-02-22T02:09:57;7.70;99.90
49717;DHT22;35609;53.166;7.610;2023-02-22T02:12:24;7.70;99.90
49717;DHT22;35609;53.166;7.610;2023-02-22T02:14:51;7.70;99.90
49717;DHT22;35609;53.166;7.610;2023-02-22T02:17:20;7.70;99.90
49717;DHT22;35609;53.166;7.610;2023-02-22T02:28:09;7.70;99.90
49717;DHT22;35609;53.166;7.610;2023-02-22T02:36:15;7.70;99.90
49717;DHT22;35609;53.166;7.610;2023-02-22T02:41:38;7.80;99.90
49717;DHT22;35609;53.166;7.610;2023-02-22T02:44:12;7.70;99.90
49717;DHT22;35609;53.166;7.610;2023-02-22T02:46:56;7.60;99.90
49717;DHT22;35609;53.166;7.610;2023-02-22T02:49:29;7.70;99.90
49717;DHT22;35609;53.166;7.610;2023-02-22T02:51:57;7.70;99.90
49717;DHT22;35609;53.166;7.610;2023-02-22T02:54:24;7.70;99.90
49717;DHT22;35609;53.166;7.610;2023-02-22T02:56:50;7.70;99.90
49717;DHT22;35609;53.166;7.610;2023-02-22T03:10:18;7.50;99.90
49717;DHT22;35609;53.166;7.610;2023-02-22T03:13:08;7.60;99.90
49717;DHT22;35609;53.166;7.610;2023-02-22T03:19:10;7.50;99.90
49717;DHT22;35609;53.166;7.610;2023-02-22T03:21:45;7.60;99.90
49717;DHT22;35609;53.166;7.610;2023-02-22T03:24:44;7.50;99.90
49717;DHT22;35609;53.166;7.610;2023-02-22T03:27:19;7.50;99.90
49717;DHT22;35609;53.166;7.610;2023-02-22T03:29:49;7.60;99.90
49717;DHT22;35609;53.166;7.610;2023-02-22T03:32:22;7.50;99.90
49717;DHT22;35609;53.166;7.610;2023-02-22T03:34:55;7.50;99.90
49717;DHT22;35609;53.166;7.610;2023-02-22T03:37:26;7.60;99.90
49717;DHT22;35609;53.166;7.610;2023-02-22T03:39:54;7.50;99.90
49717;DHT22;35609;53.166;7.610;2023-02-22T03:42:24;7.50;99.90
49717;DHT22;35609;53.166;7.610;2023-02-22T03:44:53;7.40;99.90
49717;DHT22;35609;53.166;7.610;2023-02-22T03:47:29;7.50;99.90
49717;DHT22;35609;53.166;7.610;2023-02-22T03:50:12;7.50;99.90
49717;DHT22;35609;53.166;7.610;2023-02-22T03:52:40;7.50;99.90
49717;DHT22;35609;53.166;7.610;2023-02-22T03:55:07;7.50;99.90
49717;DHT22;35609;53.166;7.610;2023-02-22T03:57:38;7.40;99.90
49717;DHT22;35609;53.166;7.610;2023-02-22T04:00:11;7.50;99.90
49717;DHT22;35609;53.166;7.610;2023-02-22T04:02:39;7.50;99.90
49717;DHT22;35609;53.166;7.610;2023-02-22T04:05:05;7.50;99.90
49717;DHT22;35609;53.166;7.610;2023-02-22T04:07:31;7.50;99.90
49717;DHT22;35609;53.166;7.610;2023-02-22T04:09:56;7.40;99.90
49717;DHT22;35609;53.166;7.610;2023-02-22T04:12:22;7.50;99.90
49717;DHT22;35609;53.166;7.610;2023-02-22T04:14:47;7.40;99.90
49717;DHT22;35609;53.166;7.610;2023-02-22T04:17:13;7.40;99.90
49717;DHT22;35609;53.166;7.610;2023-02-22T04:19:39;7.50;99.90
49717;DHT22;35609;53.166;7.610;2023-02-22T04:22:04;7.40;99.90
49717;DHT22;35609;53.166;7.610;2023-02-22T04:24:30;7.50;99.90
49717;DHT22;35609;53.166;7.610;2023-02-22T04:26:56;7.50;99.90
49717;DHT22;35609;53.166;7.610;2023-02-22T04:29:22;7.50;99.90
49717;DHT22;35609;53.166;7.610;2023-02-22T04:31:48;7.30;99.90
49717;DHT22;35609;53.166;7.610;2023-02-22T04:34:15;7.30;99.90
49717;DHT22;35609;53.166;7.610;2023-02-22T04:36:40;7.40;99.90
49717;DHT22;35609;53.166;7.610;2023-02-22T04:39:09;7.30;99.90
49717;DHT22;35609;53.166;7.610;2023-02-22T04:41:34;7.40;99.90
49717;DHT22;35609;53.166;7.610;2023-02-22T04:44:00;7.40;99.90
49717;DHT22;35609;53.166;7.610;2023-02-22T04:46:25;7.40;99.90
49717;DHT22;35609;53.166;7.610;2023-02-22T04:48:52;7.30;99.90
49717;DHT22;35609;53.166;7.610;2023-02-22T04:51:18;7.40;99.90
49717;DHT22;35609;53.166;7.610;2023-02-22T04:53:44;7.50;99.90
49717;DHT22;35609;53.166;7.610;2023-02-22T04:56:10;7.30;99.90
49717;DHT22;35609;53.166;7.610;2023-02-22T04:58:36;7.30;99.90
49717;DHT22;35609;53.166;7.610;2023-02-22T05:01:02;7.30;99.90
49717;DHT22;35609;53.166;7.610;2023-02-22T05:03:28;7.40;99.90
49717;DHT22;35609;53.166;7.610;2023-02-22T05:05:53;7.40;99.90
49717;DHT22;35609;53.166;7.610;2023-02-22T05:08:19;7.40;99.90
49717;DHT22;35609;53.166;7.610;2023-02-22T05:10:45;7.40;99.90
49717;DHT22;35609;53.166;7.610;2023-02-22T05:13:10;7.30;99.90
49717;DHT22;35609;53.166;7.610;2023-02-22T05:15:36;7.30;99.90
49717;DHT22;35609;53.166;7.610;2023-02-22T05:18:02;7.30;99.90
49717;DHT22;35609;53.166;7.610;2023-02-22T05:20:30;7.40;99.90
49717;DHT22;35609;53.166;7.610;2023-02-22T05:22:57;7.20;99.90
49717;DHT22;35609;53.166;7.610;2023-02-22T05:25:24;7.30;99.90
49717;DHT22;35609;53.166;7.610;2023-02-22T05:27:52;7.30;99.90
49717;DHT22;35609;53.166;7.610;2023-02-22T05:30:21;7.20;99.90
49717;DHT22;35609;53.166;7.610;2023-02-22T05:32:49;7.20;99.90
49717;DHT22;35609;53.166;7.610;2023-02-22T05:35:15;7.30;99.90
49717;DHT22;35609;53.166;7.610;2023-02-22T05:37:41;7.30;99.90
49717;DHT22;35609;53.166;7.610;2023-02-22T05:40:07;7.20;99.90
49717;DHT22;35609;53.166;7.610;2023-02-22T05:42:32;7.20;99.90
49717;DHT22;35609;53.166;7.610;2023-02-22T05:44:58;7.30;99.90
49717;DHT22;35609;53.166;7.610;2023-02-22T05:47:25;7.20;99.90
49717;DHT22;35609;53.166;7.610;2023-02-22T05:49:51;7.20;99.90
49717;DHT22;35609;53.166;7.610;2023-02-22T05:52:16;7.30;99.90
49717;DHT22;35609;53.166;7.610;2023-02-22T05:54:42;7.20;99.90
49717;DHT22;35609;53.166;7.610;2023-02-22T05:57:08;7.20;99.90
49717;DHT22;35609;53.166;7.610;2023-02-22T05:59:33;7.30;99.90
49717;DHT22;35609;53.166;7.610;2023-02-22T06:01:59;7.10;99.90
49717;DHT22;35609;53.166;7.610;2023-02-22T06:04:25;7.20;99.90
49717;DHT22;35609;53.166;7.610;2023-02-22T06:06:50;7.10;99.90
49717;DHT22;35609;53.166;7.610;2023-02-22T06:09:16;7.20;99.90
49717;DHT22;35609;53.166;7.610;2023-02-22T06:11:41;7.10;99.90
49717;DHT22;35609;53.166;7.610;2023-02-22T06:14:07;7.20;99.90
49717;DHT22;35609;53.166;7.610;2023-02-22T06:16:32;7.20;99.90
49717;DHT22;35609;53.166;7.610;2023-02-22T06:18:58;7.20;99.90
49717;DHT22;35609;53.166;7.610;2023-02-22T06:21:25;7.10;99.90
49717;DHT22;35609;53.166;7.610;2023-02-22T06:23:51;7.10;99.90
49717;DHT22;35609;53.166;7.610;2023-02-22T06:26:17;7.20;99.90
49717;DHT22;35609;53.166;7.610;2023-02-22T06:28:44;7.10;99.90
49717;DHT22;35609;53.166;7.610;2023-02-22T06:31:10;7.20;99.90
49717;DHT22;35609;53.166;7.610;2023-02-22T06:33:36;7.00;99.90
49717;DHT22;35609;53.166;7.610;2023-02-22T06:36:01;7.20;99.90
49717;DHT22;35609;53.166;7.610;2023-02-22T06:38:27;7.00;99.90
49717;DHT22;35609;53.166;7.610;2023-02-22T06:40:53;7.10;99.90
49717;DHT22;35609;53.166;7.610;2023-02-22T06:43:20;7.00;99.90
49717;DHT22;35609;53.166;7.610;2023-02-22T06:45:46;7.10;99.90
49717;DHT22;35609;53.166;7.610;2023-02-22T06:48:12;7.00;99.90
49717;DHT22;35609;53.166;7.610;2023-02-22T06:50:38;7.10;99.90
49717;DHT22;35609;53.166;7.610;2023-02-22T06:53:04;7.10;99.90
49717;DHT22;35609;53.166;7.610;2023-02-22T06:55:31;7.10;99.90
49717;DHT22;35609;53.166;7.610;2023-02-22T06:57:58;7.20;99.90
49717;DHT22;35609;53.166;7.610;2023-02-22T07:00:26;7.20;99.90
49717;DHT22;35609;53.166;7.610;2023-02-22T07:02:52;7.10;99.90
49717;DHT22;35609;53.166;7.610;2023-02-22T07:05:20;7.30;99.90
49717;DHT22;35609;53.166;7.610;2023-02-22T07:07:47;7.20;99.90
49717;DHT22;35609;53.166;7.610;2023-02-22T07:10:33;7.10;99.90
49717;DHT22;35609;53.166;7.610;2023-02-22T07:13:00;7.30;99.90
49717;DHT22;35609;53.166;7.610;2023-02-22T07:15:27;7.30;99.90
49717;DHT22;35609;53.166;7.610;2023-02-22T07:17:54;7.40;99.90
49717;DHT22;35609;53.166;7.610;2023-02-22T07:20:21;7.20;99.90
49717;DHT22;35609;53.166;7.610;2023-02-22T07:22:48;7.30;99.90
49717;DHT22;35609;53.166;7.610;2023-02-22T07:25:13;7.30;99.90
49717;DHT22;35609;53.166;7.610;2023-02-22T07:27:40;7.30;99.90
49717;DHT22;35609;53.166;7.610;2023-02-22T07:30:09;7.50;99.90
49717;DHT22;35609;53.166;7.610;2023-02-22T07:32:41;7.50;99.90
49717;DHT22;35609;53.166;7.610;2023-02-22T07:35:14;7.40;99.90
49717;DHT22;35609;53.166;7.610;2023-02-22T07:37:40;7.50;99.90
49717;DHT22;35609;53.166;7.610;2023-02-22T07:40:05;7.60;99.90
49717;DHT22;35609;53.166;7.610;2023-02-22T07:42:31;7.50;99.90
49717;DHT22;35609;53.166;7.610;2023-02-22T07:44:57;7.50;99.90
49717;DHT22;35609;53.166;7.610;2023-02-22T07:47:23;7.80;99.90
49717;DHT22;35609;53.166;7.610;2023-02-22T07:49:48;7.80;99.90
49717;DHT22;35609;53.166;7.610;2023-02-22T07:52:14;7.80;99.90
49717;DHT22;35609;53.166;7.610;2023-02-22T07:54:45;7.80;99.90
49717;DHT22;35609;53.166;7.610;2023-02-22T07:57:10;7.70;99.90
49717;DHT22;35609;53.166;7.610;2023-02-22T07:59:37;7.70;99.90
49717;DHT22;35609;53.166;7.610;2023-02-22T08:02:03;7.90;99.90
49717;DHT22;35609;53.166;7.610;2023-02-22T08:04:29;7.90;99.90
49717;DHT22;35609;53.166;7.610;2023-02-22T08:06:55;7.80;99.90
49717;DHT22;35609;53.166;7.610;2023-02-22T08:09:20;7.90;99.90
49717;DHT22;35609;53.166;7.610;2023-02-22T08:11:48;8.00;99.90
49717;DHT22;35609;53.166;7.610;2023-02-22T08:14:15;7.90;99.90
49717;DHT22;35609;53.166;7.610;2023-02-22T08:16:41;8.00;99.90
49717;DHT22;35609;53.166;7.610;2023-02-22T08:19:07;8.10;99.90
49717;DHT22;35609;53.166;7.610;2023-02-22T08:21:32;8.20;99.90
49717;DHT22;35609;53.166;7.610;2023-02-22T08:23:58;8.30;99.90
49717;DHT22;35609;53.166;7.610;2023-02-22T08:26:23;8.30;99.90
49717;DHT22;35609;53.166;7.610;2023-02-22T08:28:49;8.30;99.90
49717;DHT22;35609;53.166;7.610;2023-02-22T08:31:15;8.40;99.90
49717;DHT22;35609;53.166;7.610;2023-02-22T08:33:41;8.60;99.90
49717;DHT22;35609;53.166;7.610;2023-02-22T08:36:07;8.60;99.90
49717;DHT22;35609;53.166;7.610;2023-02-22T08:38:33;8.60;99.90
49717;DHT22;35609;53.166;7.610;2023-02-22T08:40:59;8.80;99.90
49717;DHT22;35609;53.166;7.610;2023-02-22T08:43:25;8.70;99.90
49717;DHT22;35609;53.166;7.610;2023-02-22T08:45:50;8.90;99.90
49717;DHT22;35609;53.166;7.610;2023-02-22T08:48:18;9.10;99.90
49717;DHT22;35609;53.166;7.610;2023-02-22T08:50:44;9.10;99.90
49717;DHT22;35609;53.166;7.610;2023-02-22T08:53:12;9.30;99.90
49717;DHT22;35609;53.166;7.610;2023-02-22T08:55:38;9.40;99.90
49717;DHT22;35609;53.166;7.610;2023-02-22T08:58:05;9.20;99.90
49717;DHT22;35609;53.166;7.610;2023-02-22T09:00:33;9.20;99.90
49717;DHT22;35609;53.166;7.610;2023-02-22T09:03:03;9.00;99.90
49717;DHT22;35609;53.166;7.610;2023-02-22T09:05:29;9.10;99.90
49717;DHT22;35609;53.166;7.610;2023-02-22T09:07:55;8.90;99.90
49717;DHT22;35609;53.166;7.610;2023-02-22T09:10:25;8.70;99.90
49717;DHT22;35609;53.166;7.610;2023-02-22T09:12:52;8.80;99.90
49717;DHT22;35609;53.166;7.610;2023-02-22T09:15:20;8.90;99.90
49717;DHT22;35609;53.166;7.610;2023-02-22T09:17:46;8.90;99.90
49717;DHT22;35609;53.166;7.610;2023-02-22T09:20:12;8.90;99.90
49717;DHT22;35609;53.166;7.610;2023-02-22T09:22:39;8.80;99.90
49717;DHT22;35609;53.166;7.610;2023-02-22T09:25:06;8.90;99.90
49717;DHT22;35609;53.166;7.610;2023-02-22T09:27:32;8.90;99.90
49717;DHT22;35609;53.166;7.610;2023-02-22T09:29:57;9.10;99.90
49717;DHT22;35609;53.166;7.610;2023-02-22T09:32:24;8.90;99.90
49717;DHT22;35609;53.166;7.610;2023-02-22T09:34:52;8.80;99.90
49717;DHT22;35609;53.166;7.610;2023-02-22T09:37:18;8.90;99.90
49717;DHT22;35609;53.166;7.610;2023-02-22T09:39:44;8.90;99.90
49717;DHT22;35609;53.166;7.610;2023-02-22T09:44:52;9.00;99.90
49717;DHT22;35609;53.166;7.610;2023-02-22T09:47:40;9.00;99.90
49717;DHT22;35609;53.166;7.610;2023-02-22T09:50:20;9.00;99.90
49717;DHT22;35609;53.166;7.610;2023-02-22T09:53:02;9.20;99.90
49717;DHT22;35609;53.166;7.610;2023-02-22T09:55:39;9.50;99.90
49717;DHT22;35609;53.166;7.610;2023-02-22T10:00:40;9.70;99.90
49717;DHT22;35609;53.166;7.610;2023-02-22T10:03:23;9.70;99.90
49717;DHT22;35609;53.166;7.610;2023-02-22T10:06:12;9.80;99.90
49717;DHT22;35609;53.166;7.610;2023-02-22T10:08:40;9.70;99.90
49717;DHT22;35609;53.166;7.610;2023-02-22T10:11:37;9.80;99.90
49717;DHT22;35609;53.166;7.610;2023-02-22T10:14:35;9.90;99.90
49717;DHT22;35609;53.166;7.610;2023-02-22T10:22:51;10.00;99.90
49717;DHT22;35609;53.166;7.610;2023-02-22T10:25:24;10.00;99.90
49717;DHT22;35609;53.166;7.610;2023-02-22T10:27:56;9.90;99.90
49717;DHT22;35609;53.166;7.610;2023-02-22T10:30:32;9.80;99.90
49717;DHT22;35609;53.166;7.610;2023-02-22T10:33:21;9.80;99.90
49717;DHT22;35609;53.166;7.610;2023-02-22T10:35:51;9.80;99.90
49717;DHT22;35609;53.166;7.610;2023-02-22T10:38:20;9.90;99.90
49717;DHT22;35609;53.166;7.610;2023-02-22T10:41:01;9.80;99.90
49717;DHT22;35609;53.166;7.610;2023-02-22T10:43:28;9.70;99.90
49717;DHT22;35609;53.166;7.610;2023-02-22T10:45:57;9.80;99.90
49717;DHT22;35609;53.166;7.610;2023-02-22T10:48:25;10.00;99.90
49717;DHT22;35609;53.166;7.610;2023-02-22T10:50:58;10.00;99.90
49717;DHT22;35609;53.166;7.610;2023-02-22T10:53:25;10.00;99.90
49717;DHT22;35609;53.166;7.610;2023-02-22T10:56:06;10.00;99.90
49717;DHT22;35609;53.166;7.610;2023-02-22T11:01:36;10.10;99.90
49717;DHT22;35609;53.166;7.610;2023-02-22T11:06:35;10.30;99.90
49717;DHT22;35609;53.166;7.610;2023-02-22T11:11:39;10.30;99.90
49717;DHT22;35609;53.166;7.610;2023-02-22T11:14:06;10.20;99.90
49717;DHT22;35609;53.166;7.610;2023-02-22T11:16:46;10.30;99.90
49717;DHT22;35609;53.166;7.610;2023-02-22T11:19:18;10.30;99.90
49717;DHT22;35609;53.166;7.610;2023-02-22T11:21:47;10.20;99.90
49717;DHT22;35609;53.166;7.610;2023-02-22T11:24:16;10.30;99.90
49717;DHT22;35609;53.166;7.610;2023-02-22T11:26:45;10.50;99.90
49717;DHT22;35609;53.166;7.610;2023-02-22T11:29:26;10.70;99.90
49717;DHT22;35609;53.166;7.610;2023-02-22T11:31:56;10.60;99.90
49717;DHT22;35609;53.166;7.610;2023-02-22T11:34:35;10.60;99.90
49717;DHT22;35609;53.166;7.610;2023-02-22T11:37:28;10.60;99.90
49717;DHT22;35609;53.166;7.610;2023-02-22T11:42:32;10.70;99.90
49717;DHT22;35609;53.166;7.610;2023-02-22T11:45:15;10.80;99.90
49717;DHT22;35609;53.166;7.610;2023-02-22T11:47:51;10.90;99.90
49717;DHT22;35609;53.166;7.610;2023-02-22T11:55:39;10.90;99.90
49717;DHT22;35609;53.166;7.610;2023-02-22T12:06:39;10.80;99.90
49717;DHT22;35609;53.166;7.610;2023-02-22T12:12:02;10.90;99.90
49717;DHT22;35609;53.166;7.610;2023-02-22T12:14:39;10.90;99.90
49717;DHT22;35609;53.166;7.610;2023-02-22T12:18:12;10.90;99.90
49717;DHT22;35609;53.166;7.610;2023-02-22T12:20:22;11.00;99.90
49717;DHT22;35609;53.166;7.610;2023-02-22T12:25:58;11.20;99.90
49717;DHT22;35609;53.166;7.610;2023-02-22T12:28:31;11.10;99.90
49717;DHT22;35609;53.166;7.610;2023-02-22T12:33:59;11.40;99.90
49717;DHT22;35609;53.166;7.610;2023-02-22T12:36:50;11.50;99.90
49717;DHT22;35609;53.166;7.610;2023-02-22T12:42:14;11.60;99.90
49717;DHT22;35609;53.166;7.610;2023-02-22T12:44:45;11.60;99.90
49717;DHT22;35609;53.166;7.610;2023-02-22T12:47:22;11.70;99.90
49717;DHT22;35609;53.166;7.610;2023-02-22T12:49:57;11.70;99.90
49717;DHT22;35609;53.166;7.610;2023-02-22T12:55:17;11.70;99.90
49717;DHT22;35609;53.166;7.610;2023-02-22T12:58:15;11.80;99.90
49717;DHT22;35609;53.166;7.610;2023-02-22T13:01:02;11.80;99.90
49717;DHT22;35609;53.166;7.610;2023-02-22T13:03:40;12.00;99.90
49717;DHT22;35609;53.166;7.610;2023-02-22T13:11:39;11.90;99.90
49717;DHT22;35609;53.166;7.610;2023-02-22T13:16:48;12.00;99.90
49717;DHT22;35609;53.166;7.610;2023-02-22T13:22:05;12.00;99.90
49717;DHT22;35609;53.166;7.610;2023-02-22T13:24:40;11.80;99.90
49717;DHT22;35609;53.166;7.610;2023-02-22T13:27:18;11.80;99.90
49717;DHT22;35609;53.166;7.610;2023-02-22T13:29:52;11.90;99.90
49717;DHT22;35609;53.166;7.610;2023-02-22T13:43:49;11.70;99.90
49717;DHT22;35609;53.166;7.610;2023-02-22T13:49:21;11.60;99.90
49717;DHT22;35609;53.166;7.610;2023-02-22T13:51:52;11.70;99.90
49717;DHT22;35609;53.166;7.610;2023-02-22T13:54:42;11.60;99.90
49717;DHT22;35609;53.166;7.610;2023-02-22T13:57:35;11.60;99.90
49717;DHT22;35609;53.166;7.610;2023-02-22T14:03:05;11.50;99.90
49717;DHT22;35609;53.166;7.610;2023-02-22T14:13:09;11.50;99.90
49717;DHT22;35609;53.166;7.610;2023-02-22T14:15:35;11.50;99.90
49717;DHT22;35609;53.166;7.610;2023-02-22T14:18:05;11.50;99.90
49717;DHT22;35609;53.166;7.610;2023-02-22T14:20:36;11.50;99.90
49717;DHT22;35609;53.166;7.610;2023-02-22T14:23:40;11.50;99.90
49717;DHT22;35609;53.166;7.610;2023-02-22T14:26:26;11.40;99.90
49717;DHT22;35609;53.166;7.610;2023-02-22T14:28:54;11.40;99.90
49717;DHT22;35609;53.166;7.610;2023-02-22T14:31:27;11.30;99.90
49717;DHT22;35609;53.166;7.610;2023-02-22T14:39:26;11.20;99.90
49717;DHT22;35609;53.166;7.610;2023-02-22T14:42:51;11.20;99.90
49717;DHT22;35609;53.166;7.610;2023-02-22T14:55:48;11.00;99.90
49717;DHT22;35609;53.166;7.610;2023-02-22T14:58:28;10.90;99.90
49717;DHT22;35609;53.166;7.610;2023-02-22T15:00:57;11.00;99.90
49717;DHT22;35609;53.166;7.610;2023-02-22T15:05:48;11.00;99.90
49717;DHT22;35609;53.166;7.610;2023-02-22T15:08:17;10.90;99.90
49717;DHT22;35609;53.166;7.610;2023-02-22T15:10:52;10.90;99.90
49717;DHT22;35609;53.166;7.610;2023-02-22T15:13:21;11.00;99.90
49717;DHT22;35609;53.166;7.610;2023-02-22T15:15:56;10.90;99.90
49717;DHT22;35609;53.166;7.610;2023-02-22T15:18:43;10.90;99.90
49717;DHT22;35609;53.166;7.610;2023-02-22T15:21:15;10.90;99.90
49717;DHT22;35609;53.166;7.610;2023-02-22T15:23:42;10.90;99.90
49717;DHT22;35609;53.166;7.610;2023-02-22T15:26:40;10.80;99.90
49717;DHT22;35609;53.166;7.610;2023-02-22T15:29:15;10.80;99.90
49717;DHT22;35609;53.166;7.610;2023-02-22T15:31:42;10.80;99.90
49717;DHT22;35609;53.166;7.610;2023-02-22T15:36:45;10.60;99.90
49717;DHT22;35609;53.166;7.610;2023-02-22T15:39:29;10.70;99.90
49717;DHT22;35609;53.166;7.610;2023-02-22T15:42:15;10.60;99.90
49717;DHT22;35609;53.166;7.610;2023-02-22T15:44:50;10.50;99.90
49717;DHT22;35609;53.166;7.610;2023-02-22T15:47:20;10.70;99.90
49717;DHT22;35609;53.166;7.610;2023-02-22T15:50:20;10.50;99.90
49717;DHT22;35609;53.166;7.610;2023-02-22T15:53:16;10.50;99.90
49717;DHT22;35609;53.166;7.610;2023-02-22T15:55:48;10.40;99.90
49717;DHT22;35609;53.166;7.610;2023-02-22T15:58:24;10.40;99.90
49717;DHT22;35609;53.166;7.610;2023-02-22T16:01:14;10.40;99.90
49717;DHT22;35609;53.166;7.610;2023-02-22T16:03:53;10.30;99.90
49717;DHT22;35609;53.166;7.610;2023-02-22T16:06:26;10.20;99.90
49717;DHT22;35609;53.166;7.610;2023-02-22T16:08:58;10.20;99.90
49717;DHT22;35609;53.166;7.610;2023-02-22T16:11:35;10.10;99.90
49717;DHT22;35609;53.166;7.610;2023-02-22T16:22:47;9.90;99.90
49717;DHT22;35609;53.166;7.610;2023-02-22T16:27:55;9.90;99.90
49717;DHT22;35609;53.166;7.610;2023-02-22T16:30:24;9.80;99.90
49717;DHT22;35609;53.166;7.610;2023-02-22T16:32:51;9.80;99.90
49717;DHT22;35609;53.166;7.610;2023-02-22T16:35:17;9.70;99.90
49717;DHT22;35609;53.166;7.610;2023-02-22T16:37:47;9.60;99.90
49717;DHT22;35609;53.166;7.610;2023-02-22T16:40:46;9.70;99.90
49717;DHT22;35609;53.166;7.610;2023-02-22T16:43:19;9.40;99.90
49717;DHT22;35609;53.166;7.610;2023-02-22T16:45:46;9.40;99.90
49717;DHT22;35609;53.166;7.610;2023-02-22T16:48:19;9.40;99.90
49717;DHT22;35609;53.166;7.610;2023-02-22T16:50:46;9.30;99.90
49717;DHT22;35609;53.166;7.610;2023-02-22T16:53:12;9.30;99.90
49717;DHT22;35609;53.166;7.610;2023-02-22T16:55:42;9.10;99.90
49717;DHT22;35609;53.166;7.610;2023-02-22T16:58:16;9.00;99.90
49717;DHT22;35609;53.166;7.610;2023-02-22T17:00:42;8.90;99.90
49717;DHT22;35609;53.166;7.610;2023-02-22T17:03:16;8.80;99.90
49717;DHT22;35609;53.166;7.610;2023-02-22T17:05:42;8.80;99.90
49717;DHT22;35609;53.166;7.610;2023-02-22T17:08:07;8.80;99.90
49717;DHT22;35609;53.166;7.610;2023-02-22T17:10:33;8.80;99.90
49717;DHT22;35609;53.166;7.610;2023-02-22T17:13:00;8.60;99.90
49717;DHT22;35609;53.166;7.610;2023-02-22T17:15:31;8.60;99.90
49717;DHT22;35609;53.166;7.610;2023-02-22T17:17:57;8.50;99.90
49717;DHT22;35609;53.166;7.610;2023-02-22T17:20:24;8.50;99.90
49717;DHT22;35609;53.166;7.610;2023-02-22T17:23:03;8.40;99.90
49717;DHT22;35609;53.166;7.610;2023-02-22T17:25:33;8.40;99.90
49717;DHT22;35609;53.166;7.610;2023-02-22T17:28:01;8.40;99.90
49717;DHT22;35609;53.166;7.610;2023-02-22T17:30:27;8.40;99.90
49717;DHT22;35609;53.166;7.610;2023-02-22T17:32:52;8.20;99.90
49717;DHT22;35609;53.166;7.610;2023-02-22T17:35:21;8.20;99.90
49717;DHT22;35609;53.166;7.610;2023-02-22T17:37:51;8.20;99.90
49717;DHT22;35609;53.166;7.610;2023-02-22T17:40:17;8.00;99.90
49717;DHT22;35609;53.166;7.610;2023-02-22T17:42:43;8.00;99.90
49717;DHT22;35609;53.166;7.610;2023-02-22T17:45:11;8.00;99.90
49717;DHT22;35609;53.166;7.610;2023-02-22T17:47:42;8.00;99.90
49717;DHT22;35609;53.166;7.610;2023-02-22T17:50:11;7.90;99.90
49717;DHT22;35609;53.166;7.610;2023-02-22T17:52:40;7.90;99.90
49717;DHT22;35609;53.166;7.610;2023-02-22T17:55:06;8.00;99.90
49717;DHT22;35609;53.166;7.610;2023-02-22T17:57:33;7.90;99.90
49717;DHT22;35609;53.166;7.610;2023-02-22T18:00:00;7.90;99.90
49717;DHT22;35609;53.166;7.610;2023-02-22T18:02:26;7.80;99.90
49717;DHT22;35609;53.166;7.610;2023-02-22T18:04:51;7.70;99.90
49717;DHT22;35609;53.166;7.610;2023-02-22T18:07:17;7.80;99.90
49717;DHT22;35609;53.166;7.610;2023-02-22T18:09:46;7.60;99.90
49717;DHT22;35609;53.166;7.610;2023-02-22T18:12:12;7.60;99.90
49717;DHT22;35609;53.166;7.610;2023-02-22T18:14:37;7.70;99.90
49717;DHT22;35609;53.166;7.610;2023-02-22T18:17:03;7.60;99.90
49717;DHT22;35609;53.166;7.610;2023-02-22T18:19:29;7.60;99.90
49717;DHT22;35609;53.166;7.610;2023-02-22T18:21:55;7.60;99.90
49717;DHT22;35609;53.166;7.610;2023-02-22T18:24:30;7.60;99.90
49717;DHT22;35609;53.166;7.610;2023-02-22T18:26:56;7.50;99.90
49717;DHT22;35609;53.166;7.610;2023-02-22T18:29:22;7.60;99.90
49717;DHT22;35609;53.166;7.610;2023-02-22T18:31:47;7.70;99.90